• Join FlightAware (Why Join?)
  • Login
  • US Flag 
01:34AM EDT


 

Airport Tracker/Info


-or-


 

Live Flight TrackerFlight Track Log ✈ EZY2285 ✈ 08-Apr-2013 ✈ EGGW / LTN - LIMC / MXP

Flight Track Log - Related Links

Times and Time Zones

All times are in EDT time to prevent confusion due to time zone crossing. See the EZY2285 flight status page for this flight to view local times or setup timezone preferences in your user account.

Time Position Orientation Groundspeed Altitude Reporting Facility
EDT Latitude Longitude Course Direction KTS MPH feet Rate Location/Type
01:31PM 51.3385 0.5570 133° Southeast  Level Estimated
01:32PM 51.2845 0.6483 133° Southeast  Level Estimated
01:33PM 51.2304 0.7395 133° Southeast  Level Estimated
01:34PM 51.1763 0.8304 134° Southeast  Level Estimated
01:35PM 51.1220 0.9211 134° Southeast  Level Estimated
01:36PM 51.0677 1.0115 134° Southeast  Level Estimated
01:37PM 51.0134 1.1018 134° Southeast  Level Estimated
01:38PM 50.9589 1.1919 134° Southeast  Level Estimated
01:39PM 50.9044 1.2817 134° Southeast  Level Estimated
01:40PM 50.8498 1.3714 134° Southeast  Level Estimated
01:41PM 50.7931 1.4642 134° Southeast  Level Estimated
01:42PM 50.7363 1.5567 134° Southeast  Level Estimated
01:43PM 50.6795 1.6491 134° Southeast  Level Estimated
01:44PM 50.6226 1.7412 134° Southeast  Level Estimated
01:45PM 50.5656 1.8331 134° Southeast  Level Estimated
01:46PM 50.5085 1.9248 134° Southeast  Level Estimated
01:47PM 50.4513 2.0163 134° Southeast  Level Estimated
01:48PM 50.3941 2.1075 135° Southeast  Level Estimated
01:49PM 50.3368 2.1985 135° Southeast  Level Estimated
01:50PM 50.2795 2.2893 135° Southeast  Level Estimated
01:51PM 50.2220 2.3799 135° Southeast  Level Estimated
01:52PM 50.1646 2.4703 135° Southeast  Level Estimated
01:53PM 50.1070 2.5604 135° Southeast  Level Estimated
01:54PM 50.0493 2.6503 135° Southeast  Level Estimated
01:55PM 49.9916 2.7401 135° Southeast  Level Estimated
01:56PM 49.9339 2.8296 135° Southeast  Level Estimated
01:57PM 49.8760 2.9188 135° Southeast  Level Estimated
01:58PM 49.8181 3.0079 135° Southeast  Level Estimated
01:59PM 49.7601 3.0968 135° Southeast  Level Estimated
02:00PM 49.7021 3.1854 135° Southeast  Level Estimated
02:01PM 49.6440 3.2738 135° Southeast  Level Estimated
02:02PM 49.5858 3.3621 135° Southeast  Level Estimated
02:03PM 49.5275 3.4501 136° Southeast  Level Estimated
02:04PM 49.4692 3.5379 136° Southeast  Level Estimated
02:05PM 49.4108 3.6254 136° Southeast  Level Estimated
02:06PM 49.3524 3.7128 136° Southeast  Level Estimated
02:07PM 49.2939 3.8000 136° Southeast  Level Estimated
02:08PM 49.2353 3.8870 136° Southeast  Level Estimated
02:09PM 49.1767 3.9737 136° Southeast  Level Estimated
02:10PM 49.1179 4.0603 136° Southeast  Level Estimated
02:11PM 49.0592 4.1466 136° Southeast  Level Estimated
02:12PM 49.0003 4.2328 136° Southeast  Level Estimated
02:13PM 48.9414 4.3187 136° Southeast  Level Estimated
02:14PM 48.8825 4.4045 136° Southeast  Level Estimated
02:15PM 48.8234 4.4900 136° Southeast  Level Estimated
02:16PM 48.7643 4.5754 136° Southeast  Level Estimated
02:17PM 48.7052 4.6605 136° Southeast  Level Estimated
02:18PM 48.6460 4.7455 137° Southeast  Level Estimated
02:19PM 48.5867 4.8302 137° Southeast  Level Estimated
02:20PM 48.5273 4.9147 137° Southeast  Level Estimated
02:21PM 48.4679 4.9991 137° Southeast  Level Estimated
02:22PM 48.4085 5.0832 137° Southeast  Level Estimated
02:23PM 48.3489 5.1672 137° Southeast  Level Estimated
02:24PM 48.2893 5.2509 137° Southeast  Level Estimated
02:25PM 48.2297 5.3345 137° Southeast  Level Estimated
02:26PM 48.1700 5.4178 137° Southeast  Level Estimated
02:27PM 48.1102 5.5010 137° Southeast  Level Estimated
02:28PM 48.0504 5.5840 137° Southeast  Level Estimated
02:29PM 47.9905 5.6668 137° Southeast  Level Estimated
02:30PM 47.9305 5.7494 137° Southeast  Level Estimated
02:31PM 47.8705 5.8318 137° Southeast  Level Estimated
02:32PM 47.8105 5.9140 137° Southeast  Level Estimated
02:33PM 47.7504 5.9960 137° Southeast  Level Estimated
02:34PM 47.6902 6.0778 138° Southeast  Level Estimated
02:35PM 47.6299 6.1595 138° Southeast  Level Estimated
02:36PM 47.5696 6.2409 138° Southeast  Level Estimated
02:37PM 47.5093 6.3222 138° Southeast  Level Estimated
02:38PM 47.4489 6.4033 138° Southeast  Level Estimated
02:39PM 47.3884 6.4841 138° Southeast  Level Estimated
02:40PM 47.3279 6.5649 138° Southeast  Level Estimated
02:41PM 47.2673 6.6454 138° Southeast  Level Estimated
02:42PM 47.2066 6.7257 138° Southeast  Level Estimated
02:43PM 47.1460 6.8059 138° Southeast  Level Estimated
02:44PM 47.0809 6.8915 138° Southeast  Level Estimated
02:45PM 47.0158 6.9769 138° Southeast  Level Estimated
02:46PM 46.9506 7.0621 138° Southeast  Level Estimated
02:47PM 46.8854 7.1471 138° Southeast  Level Estimated
02:48PM 46.8201 7.2319 138° Southeast  Level Estimated
02:49PM 46.7547 7.3165 138° Southeast  Level Estimated
02:50PM 46.6893 7.4009 138° Southeast  Level Estimated
02:51PM 46.6238 7.4850 139° Southeast  Level Estimated
02:52PM 46.5582 7.5690 139° Southeast  Level Estimated
02:53PM 46.4926 7.6528 139° Southeast  Level Estimated
02:54PM 46.4270 7.7363 139° Southeast  Level Estimated
02:55PM 46.3612 7.8197 139° Southeast  Level Estimated
02:56PM 46.2954 7.9029 139° Southeast  Level Estimated
02:57PM 46.2296 7.9858 139° Southeast  Level Estimated
02:58PM 46.1637 8.0686 139° Southeast  Level Estimated
02:59PM 46.0977 8.1512 139° Southeast  Level Estimated
03:00PM 46.0317 8.2336 139° Southeast  Level Estimated
03:01PM 45.9656 8.3157 139° Southeast  Level Estimated
03:02PM 45.8994 8.3977 139° Southeast  Level Estimated
03:03PM 45.8332 8.4795 139° Southeast  Level Estimated
03:04PM 45.7670 8.5611 139° Southeast  Level Estimated
03:05PM 45.7006 8.6425 139° Southeast  Level Estimated
03:06PM 45.6343 8.7237 139° Southeast  Level Estimated
03:07PM 45.6306 8.7281 139° Southeast  Level Estimated